sensor_id;sensor_type;location;lat;lon;timestamp;P1;durP1;ratioP1;P2;durP2;ratioP2
50946;SDS011;36955;47.416;7.716;2022-07-10T00:01:41;1.60;;;0.90;;
50946;SDS011;36955;47.416;7.716;2022-07-10T00:04:07;0.68;;;0.68;;
50946;SDS011;36955;47.416;7.716;2022-07-10T00:06:33;0.82;;;0.82;;
50946;SDS011;36955;47.416;7.716;2022-07-10T00:08:59;1.00;;;0.90;;
50946;SDS011;36955;47.416;7.716;2022-07-10T00:11:25;1.10;;;0.90;;
50946;SDS011;36955;47.416;7.716;2022-07-10T00:13:51;1.10;;;0.90;;
50946;SDS011;36955;47.416;7.716;2022-07-10T00:16:17;0.70;;;0.70;;
50946;SDS011;36955;47.416;7.716;2022-07-10T00:18:43;1.10;;;0.88;;
50946;SDS011;36955;47.416;7.716;2022-07-10T00:21:09;0.70;;;0.68;;
50946;SDS011;36955;47.416;7.716;2022-07-10T00:23:35;1.20;;;1.10;;
50946;SDS011;36955;47.416;7.716;2022-07-10T00:26:01;0.73;;;0.73;;
50946;SDS011;36955;47.416;7.716;2022-07-10T00:28:28;1.10;;;1.00;;
50946;SDS011;36955;47.416;7.716;2022-07-10T00:30:54;0.90;;;0.80;;
50946;SDS011;36955;47.416;7.716;2022-07-10T00:33:20;0.80;;;0.80;;
50946;SDS011;36955;47.416;7.716;2022-07-10T00:35:46;1.08;;;0.88;;
50946;SDS011;36955;47.416;7.716;2022-07-10T00:38:12;0.60;;;0.60;;
50946;SDS011;36955;47.416;7.716;2022-07-10T00:40:38;1.77;;;0.57;;
50946;SDS011;36955;47.416;7.716;2022-07-10T00:43:04;0.70;;;0.70;;
50946;SDS011;36955;47.416;7.716;2022-07-10T00:45:34;1.20;;;1.10;;
50946;SDS011;36955;47.416;7.716;2022-07-10T00:48:00;1.00;;;0.93;;
50946;SDS011;36955;47.416;7.716;2022-07-10T00:50:26;0.70;;;0.70;;
50946;SDS011;36955;47.416;7.716;2022-07-10T00:52:52;0.95;;;0.90;;
50946;SDS011;36955;47.416;7.716;2022-07-10T00:55:19;0.77;;;0.75;;
50946;SDS011;36955;47.416;7.716;2022-07-10T00:57:46;1.15;;;1.00;;
50946;SDS011;36955;47.416;7.716;2022-07-10T01:00:13;1.13;;;1.00;;
50946;SDS011;36955;47.416;7.716;2022-07-10T01:02:41;1.15;;;1.05;;
50946;SDS011;36955;47.416;7.716;2022-07-10T01:05:08;29.02;;;14.68;;
50946;SDS011;36955;47.416;7.716;2022-07-10T01:07:35;978.50;;;63.50;;
50946;SDS011;36955;47.416;7.716;2022-07-10T01:10:01;105.72;;;9.23;;
50946;SDS011;36955;47.416;7.716;2022-07-10T01:12:28;4.18;;;2.10;;
50946;SDS011;36955;47.416;7.716;2022-07-10T01:14:54;2.05;;;1.80;;
50946;SDS011;36955;47.416;7.716;2022-07-10T01:17:20;11.73;;;2.42;;
50946;SDS011;36955;47.416;7.716;2022-07-10T01:19:47;7.55;;;2.63;;
50946;SDS011;36955;47.416;7.716;2022-07-10T01:22:13;25.08;;;3.88;;
50946;SDS011;36955;47.416;7.716;2022-07-10T01:24:39;5.85;;;2.80;;
50946;SDS011;36955;47.416;7.716;2022-07-10T01:27:05;9.90;;;2.33;;
50946;SDS011;36955;47.416;7.716;2022-07-10T01:29:31;6.07;;;2.95;;
50946;SDS011;36955;47.416;7.716;2022-07-10T01:31:57;3.15;;;2.85;;
50946;SDS011;36955;47.416;7.716;2022-07-10T01:34:23;3.28;;;2.92;;
50946;SDS011;36955;47.416;7.716;2022-07-10T01:36:49;7.10;;;3.28;;
50946;SDS011;36955;47.416;7.716;2022-07-10T01:39:15;5.55;;;3.38;;
50946;SDS011;36955;47.416;7.716;2022-07-10T01:41:41;4.55;;;3.00;;
50946;SDS011;36955;47.416;7.716;2022-07-10T01:44:07;5.68;;;3.58;;
50946;SDS011;36955;47.416;7.716;2022-07-10T01:46:33;4.60;;;3.28;;
50946;SDS011;36955;47.416;7.716;2022-07-10T01:48:59;5.80;;;3.40;;
50946;SDS011;36955;47.416;7.716;2022-07-10T01:51:25;4.65;;;3.30;;
50946;SDS011;36955;47.416;7.716;2022-07-10T01:53:51;5.90;;;3.17;;
50946;SDS011;36955;47.416;7.716;2022-07-10T01:56:17;4.72;;;3.33;;
50946;SDS011;36955;47.416;7.716;2022-07-10T01:58:44;3.72;;;2.97;;
50946;SDS011;36955;47.416;7.716;2022-07-10T02:01:10;4.35;;;3.22;;
50946;SDS011;36955;47.416;7.716;2022-07-10T02:03:37;4.53;;;3.20;;
50946;SDS011;36955;47.416;7.716;2022-07-10T02:06:04;4.15;;;3.58;;
50946;SDS011;36955;47.416;7.716;2022-07-10T02:08:30;4.38;;;3.03;;
50946;SDS011;36955;47.416;7.716;2022-07-10T02:10:57;5.55;;;3.72;;
50946;SDS011;36955;47.416;7.716;2022-07-10T02:13:23;4.25;;;3.20;;
50946;SDS011;36955;47.416;7.716;2022-07-10T02:15:49;8.38;;;3.22;;
50946;SDS011;36955;47.416;7.716;2022-07-10T02:18:15;5.57;;;3.50;;
50946;SDS011;36955;47.416;7.716;2022-07-10T02:20:42;6.40;;;3.40;;
50946;SDS011;36955;47.416;7.716;2022-07-10T02:23:08;3.97;;;3.58;;
50946;SDS011;36955;47.416;7.716;2022-07-10T02:25:34;3.67;;;3.20;;
50946;SDS011;36955;47.416;7.716;2022-07-10T02:28:00;5.78;;;3.50;;
50946;SDS011;36955;47.416;7.716;2022-07-10T02:30:26;4.45;;;3.50;;
50946;SDS011;36955;47.416;7.716;2022-07-10T02:32:52;4.25;;;3.60;;
50946;SDS011;36955;47.416;7.716;2022-07-10T02:35:18;4.33;;;3.60;;
50946;SDS011;36955;47.416;7.716;2022-07-10T02:37:44;7.57;;;4.53;;
50946;SDS011;36955;47.416;7.716;2022-07-10T02:40:10;6.88;;;4.55;;
50946;SDS011;36955;47.416;7.716;2022-07-10T02:42:37;6.22;;;4.65;;
50946;SDS011;36955;47.416;7.716;2022-07-10T02:45:03;6.70;;;5.10;;
50946;SDS011;36955;47.416;7.716;2022-07-10T02:47:29;9.00;;;5.38;;
50946;SDS011;36955;47.416;7.716;2022-07-10T02:49:55;8.10;;;5.38;;
50946;SDS011;36955;47.416;7.716;2022-07-10T02:52:21;8.75;;;5.00;;
50946;SDS011;36955;47.416;7.716;2022-07-10T02:54:47;5.53;;;4.60;;
50946;SDS011;36955;47.416;7.716;2022-07-10T02:57:13;6.78;;;5.10;;
50946;SDS011;36955;47.416;7.716;2022-07-10T02:59:39;8.80;;;5.20;;
50946;SDS011;36955;47.416;7.716;2022-07-10T03:02:05;6.32;;;5.35;;
50946;SDS011;36955;47.416;7.716;2022-07-10T03:04:31;6.55;;;5.47;;
50946;SDS011;36955;47.416;7.716;2022-07-10T03:06:57;8.73;;;5.82;;
50946;SDS011;36955;47.416;7.716;2022-07-10T03:09:23;7.85;;;5.68;;
50946;SDS011;36955;47.416;7.716;2022-07-10T03:11:49;6.45;;;5.45;;
50946;SDS011;36955;47.416;7.716;2022-07-10T03:14:16;7.47;;;5.68;;
50946;SDS011;36955;47.416;7.716;2022-07-10T03:16:42;8.30;;;6.50;;
50946;SDS011;36955;47.416;7.716;2022-07-10T03:19:09;8.93;;;6.60;;
50946;SDS011;36955;47.416;7.716;2022-07-10T03:21:35;7.85;;;5.88;;
50946;SDS011;36955;47.416;7.716;2022-07-10T03:24:01;10.15;;;6.00;;
50946;SDS011;36955;47.416;7.716;2022-07-10T03:26:27;7.50;;;5.88;;
50946;SDS011;36955;47.416;7.716;2022-07-10T03:28:53;6.63;;;5.63;;
50946;SDS011;36955;47.416;7.716;2022-07-10T03:31:19;8.70;;;5.43;;
50946;SDS011;36955;47.416;7.716;2022-07-10T03:33:45;6.00;;;5.38;;
50946;SDS011;36955;47.416;7.716;2022-07-10T03:36:11;7.57;;;5.40;;
50946;SDS011;36955;47.416;7.716;2022-07-10T03:38:37;7.85;;;5.40;;
50946;SDS011;36955;47.416;7.716;2022-07-10T03:41:03;8.00;;;4.95;;
50946;SDS011;36955;47.416;7.716;2022-07-10T03:43:29;5.85;;;4.90;;
50946;SDS011;36955;47.416;7.716;2022-07-10T03:45:56;7.05;;;6.38;;
50946;SDS011;36955;47.416;7.716;2022-07-10T03:48:22;7.15;;;5.68;;
50946;SDS011;36955;47.416;7.716;2022-07-10T03:50:49;7.32;;;5.40;;
50946;SDS011;36955;47.416;7.716;2022-07-10T03:53:18;8.10;;;5.45;;
50946;SDS011;36955;47.416;7.716;2022-07-10T03:55:45;7.03;;;5.93;;
50946;SDS011;36955;47.416;7.716;2022-07-10T03:58:11;6.43;;;5.35;;
50946;SDS011;36955;47.416;7.716;2022-07-10T04:00:37;7.55;;;5.93;;
50946;SDS011;36955;47.416;7.716;2022-07-10T04:03:06;7.13;;;4.90;;
50946;SDS011;36955;47.416;7.716;2022-07-10T04:05:33;9.57;;;5.55;;
50946;SDS011;36955;47.416;7.716;2022-07-10T04:08:01;9.70;;;5.78;;
50946;SDS011;36955;47.416;7.716;2022-07-10T04:10:28;7.65;;;5.75;;
50946;SDS011;36955;47.416;7.716;2022-07-10T04:12:55;9.30;;;5.90;;
50946;SDS011;36955;47.416;7.716;2022-07-10T04:15:21;8.57;;;6.43;;
50946;SDS011;36955;47.416;7.716;2022-07-10T04:17:48;8.48;;;6.85;;
50946;SDS011;36955;47.416;7.716;2022-07-10T04:20:15;9.85;;;7.45;;
50946;SDS011;36955;47.416;7.716;2022-07-10T04:22:41;13.35;;;7.70;;
50946;SDS011;36955;47.416;7.716;2022-07-10T04:25:08;9.00;;;7.40;;
50946;SDS011;36955;47.416;7.716;2022-07-10T04:27:34;10.60;;;7.40;;
50946;SDS011;36955;47.416;7.716;2022-07-10T04:30:00;11.48;;;7.45;;
50946;SDS011;36955;47.416;7.716;2022-07-10T04:32:27;9.90;;;7.75;;
50946;SDS011;36955;47.416;7.716;2022-07-10T04:34:53;11.38;;;7.75;;
50946;SDS011;36955;47.416;7.716;2022-07-10T04:37:20;10.10;;;7.53;;
50946;SDS011;36955;47.416;7.716;2022-07-10T04:39:46;8.57;;;7.68;;
50946;SDS011;36955;47.416;7.716;2022-07-10T04:42:12;12.10;;;7.93;;
50946;SDS011;36955;47.416;7.716;2022-07-10T04:44:38;8.82;;;7.43;;
50946;SDS011;36955;47.416;7.716;2022-07-10T04:47:04;8.82;;;7.22;;
50946;SDS011;36955;47.416;7.716;2022-07-10T04:49:31;11.30;;;8.80;;
50946;SDS011;36955;47.416;7.716;2022-07-10T04:51:58;11.30;;;9.00;;
50946;SDS011;36955;47.416;7.716;2022-07-10T04:54:24;10.52;;;9.15;;
50946;SDS011;36955;47.416;7.716;2022-07-10T04:56:51;12.65;;;9.15;;
50946;SDS011;36955;47.416;7.716;2022-07-10T04:59:17;10.60;;;9.27;;
50946;SDS011;36955;47.416;7.716;2022-07-10T05:01:43;10.60;;;8.45;;
50946;SDS011;36955;47.416;7.716;2022-07-10T05:04:09;9.98;;;8.82;;
50946;SDS011;36955;47.416;7.716;2022-07-10T05:06:36;12.05;;;9.40;;
50946;SDS011;36955;47.416;7.716;2022-07-10T05:09:02;10.70;;;9.27;;
50946;SDS011;36955;47.416;7.716;2022-07-10T05:11:28;9.70;;;8.70;;
50946;SDS011;36955;47.416;7.716;2022-07-10T05:13:55;31.27;;;9.40;;
50946;SDS011;36955;47.416;7.716;2022-07-10T05:16:21;16.10;;;8.75;;
50946;SDS011;36955;47.416;7.716;2022-07-10T05:18:47;12.40;;;9.13;;
50946;SDS011;36955;47.416;7.716;2022-07-10T05:21:13;11.88;;;9.48;;
50946;SDS011;36955;47.416;7.716;2022-07-10T05:23:39;10.00;;;9.00;;
50946;SDS011;36955;47.416;7.716;2022-07-10T05:26:05;10.27;;;8.90;;
50946;SDS011;36955;47.416;7.716;2022-07-10T05:28:31;10.77;;;9.15;;
50946;SDS011;36955;47.416;7.716;2022-07-10T05:30:58;11.10;;;9.50;;
50946;SDS011;36955;47.416;7.716;2022-07-10T05:33:25;11.18;;;9.65;;
50946;SDS011;36955;47.416;7.716;2022-07-10T05:35:51;11.35;;;9.77;;
50946;SDS011;36955;47.416;7.716;2022-07-10T05:38:17;14.77;;;11.00;;
50946;SDS011;36955;47.416;7.716;2022-07-10T05:40:43;12.52;;;11.10;;
50946;SDS011;36955;47.416;7.716;2022-07-10T05:43:09;12.88;;;10.52;;
50946;SDS011;36955;47.416;7.716;2022-07-10T05:45:35;15.30;;;11.50;;
50946;SDS011;36955;47.416;7.716;2022-07-10T05:48:01;9.05;;;6.32;;
50946;SDS011;36955;47.416;7.716;2022-07-10T05:50:27;1999.90;;;999.90;;
50946;SDS011;36955;47.416;7.716;2022-07-10T05:52:54;409.05;;;98.45;;
50946;SDS011;36955;47.416;7.716;2022-07-10T05:55:20;406.05;;;69.63;;
50946;SDS011;36955;47.416;7.716;2022-07-10T05:57:46;13.45;;;7.90;;
50946;SDS011;36955;47.416;7.716;2022-07-10T06:00:12;57.60;;;34.35;;
50946;SDS011;36955;47.416;7.716;2022-07-10T06:02:38;1999.90;;;999.90;;
50946;SDS011;36955;47.416;7.716;2022-07-10T06:05:05;1999.90;;;999.90;;
50946;SDS011;36955;47.416;7.716;2022-07-10T06:07:31;1999.90;;;999.90;;
50946;SDS011;36955;47.416;7.716;2022-07-10T06:09:57;1999.90;;;999.90;;
50946;SDS011;36955;47.416;7.716;2022-07-10T06:12:23;1999.90;;;999.90;;
50946;SDS011;36955;47.416;7.716;2022-07-10T06:14:49;1999.90;;;999.90;;
50946;SDS011;36955;47.416;7.716;2022-07-10T06:17:15;1999.90;;;999.90;;
50946;SDS011;36955;47.416;7.716;2022-07-10T06:19:41;1999.90;;;999.90;;
50946;SDS011;36955;47.416;7.716;2022-07-10T06:22:07;1999.90;;;999.90;;
50946;SDS011;36955;47.416;7.716;2022-07-10T06:24:33;7.95;;;5.55;;
50946;SDS011;36955;47.416;7.716;2022-07-10T06:26:59;1999.90;;;999.90;;
50946;SDS011;36955;47.416;7.716;2022-07-10T06:29:25;1999.90;;;999.90;;
50946;SDS011;36955;47.416;7.716;2022-07-10T06:31:52;1999.90;;;999.90;;
50946;SDS011;36955;47.416;7.716;2022-07-10T06:34:18;238.90;;;37.03;;
50946;SDS011;36955;47.416;7.716;2022-07-10T06:36:44;5.40;;;3.97;;
50946;SDS011;36955;47.416;7.716;2022-07-10T06:39:10;10.20;;;5.30;;
50946;SDS011;36955;47.416;7.716;2022-07-10T06:41:37;1999.90;;;999.90;;
50946;SDS011;36955;47.416;7.716;2022-07-10T06:44:03;1999.90;;;999.90;;
50946;SDS011;36955;47.416;7.716;2022-07-10T06:46:29;1999.90;;;999.90;;
50946;SDS011;36955;47.416;7.716;2022-07-10T06:48:55;1999.90;;;999.90;;
50946;SDS011;36955;47.416;7.716;2022-07-10T06:51:21;1999.90;;;999.90;;
50946;SDS011;36955;47.416;7.716;2022-07-10T06:53:47;1999.90;;;999.90;;
50946;SDS011;36955;47.416;7.716;2022-07-10T06:56:13;1999.90;;;999.90;;
50946;SDS011;36955;47.416;7.716;2022-07-10T06:58:40;1999.90;;;999.90;;
50946;SDS011;36955;47.416;7.716;2022-07-10T07:01:06;55.33;;;19.73;;
50946;SDS011;36955;47.416;7.716;2022-07-10T07:03:32;10.82;;;9.63;;
50946;SDS011;36955;47.416;7.716;2022-07-10T07:05:58;10.23;;;9.23;;
50946;SDS011;36955;47.416;7.716;2022-07-10T07:08:24;10.82;;;9.73;;
50946;SDS011;36955;47.416;7.716;2022-07-10T07:10:50;11.57;;;9.93;;
50946;SDS011;36955;47.416;7.716;2022-07-10T07:13:16;11.35;;;10.20;;
50946;SDS011;36955;47.416;7.716;2022-07-10T07:15:42;11.82;;;10.38;;
50946;SDS011;36955;47.416;7.716;2022-07-10T07:18:08;11.18;;;9.90;;
50946;SDS011;36955;47.416;7.716;2022-07-10T07:20:34;11.10;;;9.10;;
50946;SDS011;36955;47.416;7.716;2022-07-10T07:23:00;11.60;;;9.55;;
50946;SDS011;36955;47.416;7.716;2022-07-10T07:25:27;10.63;;;9.63;;
50946;SDS011;36955;47.416;7.716;2022-07-10T07:27:53;10.95;;;8.50;;
50946;SDS011;36955;47.416;7.716;2022-07-10T07:30:19;12.63;;;8.60;;
50946;SDS011;36955;47.416;7.716;2022-07-10T07:32:45;9.40;;;8.40;;
50946;SDS011;36955;47.416;7.716;2022-07-10T07:35:13;9.17;;;8.10;;
50946;SDS011;36955;47.416;7.716;2022-07-10T07:37:46;9.68;;;8.68;;
50946;SDS011;36955;47.416;7.716;2022-07-10T07:40:15;9.60;;;8.52;;
50946;SDS011;36955;47.416;7.716;2022-07-10T07:42:43;12.05;;;8.55;;
50946;SDS011;36955;47.416;7.716;2022-07-10T07:45:09;11.97;;;9.27;;
50946;SDS011;36955;47.416;7.716;2022-07-10T07:50:12;10.15;;;8.75;;
50946;SDS011;36955;47.416;7.716;2022-07-10T07:52:59;9.73;;;8.73;;
50946;SDS011;36955;47.416;7.716;2022-07-10T07:55:26;9.52;;;8.63;;
50946;SDS011;36955;47.416;7.716;2022-07-10T07:57:54;9.65;;;8.65;;
50946;SDS011;36955;47.416;7.716;2022-07-10T08:00:21;11.88;;;8.25;;
50946;SDS011;36955;47.416;7.716;2022-07-10T08:02:49;9.10;;;8.15;;
50946;SDS011;36955;47.416;7.716;2022-07-10T08:05:16;9.77;;;8.23;;
50946;SDS011;36955;47.416;7.716;2022-07-10T08:07:43;8.57;;;7.57;;
50946;SDS011;36955;47.416;7.716;2022-07-10T08:10:15;8.43;;;7.53;;
50946;SDS011;36955;47.416;7.716;2022-07-10T08:12:43;9.25;;;7.70;;
50946;SDS011;36955;47.416;7.716;2022-07-10T08:15:11;8.73;;;7.82;;
50946;SDS011;36955;47.416;7.716;2022-07-10T08:17:38;9.25;;;8.25;;
50946;SDS011;36955;47.416;7.716;2022-07-10T08:20:04;9.68;;;8.02;;
50946;SDS011;36955;47.416;7.716;2022-07-10T08:22:33;9.25;;;8.35;;
50946;SDS011;36955;47.416;7.716;2022-07-10T08:24:59;9.90;;;8.10;;
50946;SDS011;36955;47.416;7.716;2022-07-10T08:27:25;11.73;;;7.93;;
50946;SDS011;36955;47.416;7.716;2022-07-10T08:29:52;9.00;;;7.85;;
50946;SDS011;36955;47.416;7.716;2022-07-10T08:32:18;9.98;;;8.93;;
50946;SDS011;36955;47.416;7.716;2022-07-10T08:34:44;8.93;;;8.02;;
50946;SDS011;36955;47.416;7.716;2022-07-10T08:37:10;8.98;;;7.95;;
50946;SDS011;36955;47.416;7.716;2022-07-10T08:39:36;9.52;;;8.05;;
50946;SDS011;36955;47.416;7.716;2022-07-10T08:42:04;10.38;;;7.90;;
50946;SDS011;36955;47.416;7.716;2022-07-10T08:44:31;10.48;;;8.15;;
50946;SDS011;36955;47.416;7.716;2022-07-10T08:46:59;8.45;;;6.75;;
50946;SDS011;36955;47.416;7.716;2022-07-10T08:49:26;9.75;;;7.40;;
50946;SDS011;36955;47.416;7.716;2022-07-10T08:54:28;10.02;;;7.30;;
50946;SDS011;36955;47.416;7.716;2022-07-10T08:57:02;9.45;;;7.97;;
50946;SDS011;36955;47.416;7.716;2022-07-10T08:59:29;8.05;;;7.03;;
50946;SDS011;36955;47.416;7.716;2022-07-10T09:01:55;11.00;;;7.18;;
50946;SDS011;36955;47.416;7.716;2022-07-10T09:04:22;8.65;;;7.00;;
50946;SDS011;36955;47.416;7.716;2022-07-10T09:06:50;8.55;;;7.60;;
50946;SDS011;36955;47.416;7.716;2022-07-10T09:09:18;8.07;;;7.20;;
50946;SDS011;36955;47.416;7.716;2022-07-10T09:11:45;6.82;;;6.13;;
50946;SDS011;36955;47.416;7.716;2022-07-10T09:14:11;10.27;;;6.03;;
50946;SDS011;36955;47.416;7.716;2022-07-10T09:16:43;8.27;;;7.05;;
50946;SDS011;36955;47.416;7.716;2022-07-10T09:19:16;7.75;;;6.88;;
50946;SDS011;36955;47.416;7.716;2022-07-10T09:21:54;7.03;;;6.32;;
50946;SDS011;36955;47.416;7.716;2022-07-10T09:24:34;8.13;;;6.15;;
50946;SDS011;36955;47.416;7.716;2022-07-10T09:27:02;8.07;;;6.22;;
50946;SDS011;36955;47.416;7.716;2022-07-10T09:29:29;6.22;;;5.63;;
50946;SDS011;36955;47.416;7.716;2022-07-10T09:32:09;6.70;;;6.00;;
50946;SDS011;36955;47.416;7.716;2022-07-10T09:40:05;6.40;;;5.75;;
50946;SDS011;36955;47.416;7.716;2022-07-10T09:42:35;7.15;;;5.78;;
50946;SDS011;36955;47.416;7.716;2022-07-10T09:47:37;6.15;;;4.50;;
50946;SDS011;36955;47.416;7.716;2022-07-10T09:52:58;7.75;;;5.65;;
50946;SDS011;36955;47.416;7.716;2022-07-10T09:55:32;5.95;;;5.35;;
50946;SDS011;36955;47.416;7.716;2022-07-10T09:58:01;8.38;;;5.45;;
50946;SDS011;36955;47.416;7.716;2022-07-10T10:02:59;6.53;;;4.93;;
50946;SDS011;36955;47.416;7.716;2022-07-10T10:08:04;5.40;;;4.77;;
50946;SDS011;36955;47.416;7.716;2022-07-10T10:10:45;7.95;;;4.88;;
50946;SDS011;36955;47.416;7.716;2022-07-10T10:13:15;7.18;;;5.55;;
50946;SDS011;36955;47.416;7.716;2022-07-10T10:15:46;7.30;;;5.60;;
50946;SDS011;36955;47.416;7.716;2022-07-10T10:18:13;7.13;;;5.20;;
50946;SDS011;36955;47.416;7.716;2022-07-10T10:20:45;6.03;;;4.88;;
50946;SDS011;36955;47.416;7.716;2022-07-10T10:23:12;7.40;;;4.88;;
50946;SDS011;36955;47.416;7.716;2022-07-10T10:25:40;5.78;;;4.68;;
50946;SDS011;36955;47.416;7.716;2022-07-10T10:28:07;1999.90;;;999.90;;
50946;SDS011;36955;47.416;7.716;2022-07-10T10:30:38;1999.90;;;999.90;;
50946;SDS011;36955;47.416;7.716;2022-07-10T10:33:40;1999.90;;;999.90;;
50946;SDS011;36955;47.416;7.716;2022-07-10T10:35:57;1999.90;;;999.90;;
50946;SDS011;36955;47.416;7.716;2022-07-10T10:39:10;1999.90;;;999.90;;
50946;SDS011;36955;47.416;7.716;2022-07-10T10:41:58;1999.90;;;999.90;;
50946;SDS011;36955;47.416;7.716;2022-07-10T10:49:15;1999.90;;;999.90;;
50946;SDS011;36955;47.416;7.716;2022-07-10T10:57:23;1999.90;;;999.90;;
50946;SDS011;36955;47.416;7.716;2022-07-10T10:59:59;1999.90;;;999.90;;
50946;SDS011;36955;47.416;7.716;2022-07-10T11:02:29;1999.90;;;999.90;;
50946;SDS011;36955;47.416;7.716;2022-07-10T11:15:32;5.00;;;4.50;;
50946;SDS011;36955;47.416;7.716;2022-07-10T11:18:03;5.53;;;3.83;;
50946;SDS011;36955;47.416;7.716;2022-07-10T11:20:31;4.50;;;4.07;;
50946;SDS011;36955;47.416;7.716;2022-07-10T11:25:52;6.05;;;3.80;;
50946;SDS011;36955;47.416;7.716;2022-07-10T11:28:32;4.78;;;3.72;;
50946;SDS011;36955;47.416;7.716;2022-07-10T11:31:07;4.75;;;3.63;;
50946;SDS011;36955;47.416;7.716;2022-07-10T11:33:42;4.03;;;3.60;;
50946;SDS011;36955;47.416;7.716;2022-07-10T11:38:47;4.95;;;3.50;;
50946;SDS011;36955;47.416;7.716;2022-07-10T11:41:21;4.82;;;3.78;;
50946;SDS011;36955;47.416;7.716;2022-07-10T11:43:47;3.83;;;3.47;;
50946;SDS011;36955;47.416;7.716;2022-07-10T11:46:13;4.03;;;3.55;;
50946;SDS011;36955;47.416;7.716;2022-07-10T11:48:39;5.43;;;3.58;;
50946;SDS011;36955;47.416;7.716;2022-07-10T11:51:27;5.15;;;3.38;;
50946;SDS011;36955;47.416;7.716;2022-07-10T11:56:32;3.42;;;3.10;;
50946;SDS011;36955;47.416;7.716;2022-07-10T11:59:10;5.72;;;3.00;;
50946;SDS011;36955;47.416;7.716;2022-07-10T12:01:41;3.90;;;2.75;;
50946;SDS011;36955;47.416;7.716;2022-07-10T12:04:12;4.88;;;3.05;;
50946;SDS011;36955;47.416;7.716;2022-07-10T12:06:44;4.28;;;3.03;;
50946;SDS011;36955;47.416;7.716;2022-07-10T12:09:13;4.97;;;2.55;;
50946;SDS011;36955;47.416;7.716;2022-07-10T12:11:40;4.13;;;2.90;;
50946;SDS011;36955;47.416;7.716;2022-07-10T12:14:08;6.30;;;2.67;;
50946;SDS011;36955;47.416;7.716;2022-07-10T12:16:35;2.85;;;2.65;;
50946;SDS011;36955;47.416;7.716;2022-07-10T12:19:01;3.75;;;2.80;;
50946;SDS011;36955;47.416;7.716;2022-07-10T12:21:28;2.85;;;2.60;;
50946;SDS011;36955;47.416;7.716;2022-07-10T12:23:55;4.78;;;2.80;;
50946;SDS011;36955;47.416;7.716;2022-07-10T12:26:21;4.88;;;2.35;;
50946;SDS011;36955;47.416;7.716;2022-07-10T12:28:51;2.80;;;2.53;;
50946;SDS011;36955;47.416;7.716;2022-07-10T12:31:24;3.28;;;2.55;;
50946;SDS011;36955;47.416;7.716;2022-07-10T12:33:53;12.25;;;3.55;;
50946;SDS011;36955;47.416;7.716;2022-07-10T12:39:16;7.18;;;2.45;;
50946;SDS011;36955;47.416;7.716;2022-07-10T12:41:53;4.65;;;2.60;;
50946;SDS011;36955;47.416;7.716;2022-07-10T12:44:38;4.78;;;2.63;;
50946;SDS011;36955;47.416;7.716;2022-07-10T12:47:07;4.60;;;2.75;;
50946;SDS011;36955;47.416;7.716;2022-07-10T12:49:57;3.33;;;2.65;;
50946;SDS011;36955;47.416;7.716;2022-07-10T12:52:28;2.70;;;2.50;;
50946;SDS011;36955;47.416;7.716;2022-07-10T12:57:48;860.30;;;115.80;;
50946;SDS011;36955;47.416;7.716;2022-07-10T13:00:23;1999.90;;;999.90;;
50946;SDS011;36955;47.416;7.716;2022-07-10T13:02:57;1999.90;;;999.90;;
50946;SDS011;36955;47.416;7.716;2022-07-10T13:05:37;1523.80;;;764.63;;
50946;SDS011;36955;47.416;7.716;2022-07-10T13:08:06;18.17;;;3.67;;
50946;SDS011;36955;47.416;7.716;2022-07-10T13:10:51;511.45;;;64.32;;
50946;SDS011;36955;47.416;7.716;2022-07-10T13:13:21;3.90;;;2.13;;
50946;SDS011;36955;47.416;7.716;2022-07-10T13:15:48;2.00;;;1.70;;
50946;SDS011;36955;47.416;7.716;2022-07-10T13:18:15;2.17;;;1.70;;
50946;SDS011;36955;47.416;7.716;2022-07-10T13:20:45;874.42;;;302.25;;
50946;SDS011;36955;47.416;7.716;2022-07-10T13:23:11;0.10;;;0.10;;
50946;SDS011;36955;47.416;7.716;2022-07-10T13:25:37;0.05;;;0.05;;
50946;SDS011;36955;47.416;7.716;2022-07-10T13:28:07;0.10;;;0.10;;
50946;SDS011;36955;47.416;7.716;2022-07-10T13:30:34;0.10;;;0.10;;
50946;SDS011;36955;47.416;7.716;2022-07-10T13:33:01;0.10;;;0.10;;
50946;SDS011;36955;47.416;7.716;2022-07-10T13:35:28;0.00;;;0.00;;
50946;SDS011;36955;47.416;7.716;2022-07-10T13:37:55;0.10;;;0.10;;
50946;SDS011;36955;47.416;7.716;2022-07-10T13:40:24;0.00;;;0.00;;
50946;SDS011;36955;47.416;7.716;2022-07-10T13:42:50;0.10;;;0.10;;
50946;SDS011;36955;47.416;7.716;2022-07-10T13:45:16;0.10;;;0.10;;
50946;SDS011;36955;47.416;7.716;2022-07-10T13:47:42;0.10;;;0.10;;
50946;SDS011;36955;47.416;7.716;2022-07-10T13:50:08;0.30;;;0.30;;
50946;SDS011;36955;47.416;7.716;2022-07-10T13:52:34;0.50;;;0.50;;
50946;SDS011;36955;47.416;7.716;2022-07-10T13:55:00;0.30;;;0.30;;
50946;SDS011;36955;47.416;7.716;2022-07-10T13:57:27;0.30;;;0.30;;
50946;SDS011;36955;47.416;7.716;2022-07-10T13:59:53;1.00;;;1.00;;
50946;SDS011;36955;47.416;7.716;2022-07-10T14:02:19;1.85;;;1.75;;
50946;SDS011;36955;47.416;7.716;2022-07-10T14:04:45;1.05;;;1.05;;
50946;SDS011;36955;47.416;7.716;2022-07-10T14:07:11;0.40;;;0.40;;
50946;SDS011;36955;47.416;7.716;2022-07-10T14:09:37;0.30;;;0.30;;
50946;SDS011;36955;47.416;7.716;2022-07-10T14:12:03;1.25;;;1.25;;
50946;SDS011;36955;47.416;7.716;2022-07-10T14:14:29;1.10;;;1.10;;
50946;SDS011;36955;47.416;7.716;2022-07-10T14:16:55;0.50;;;0.50;;
50946;SDS011;36955;47.416;7.716;2022-07-10T14:19:21;0.70;;;0.70;;
50946;SDS011;36955;47.416;7.716;2022-07-10T14:21:47;0.90;;;0.90;;
50946;SDS011;36955;47.416;7.716;2022-07-10T14:24:13;0.90;;;0.88;;
50946;SDS011;36955;47.416;7.716;2022-07-10T14:26:40;3.88;;;3.75;;
50946;SDS011;36955;47.416;7.716;2022-07-10T14:29:06;6.07;;;4.82;;
50946;SDS011;36955;47.416;7.716;2022-07-10T14:31:32;1999.90;;;999.90;;
50946;SDS011;36955;47.416;7.716;2022-07-10T14:33:58;1999.90;;;999.90;;
50946;SDS011;36955;47.416;7.716;2022-07-10T14:36:25;0.30;;;0.30;;
50946;SDS011;36955;47.416;7.716;2022-07-10T14:38:51;0.30;;;0.30;;
50946;SDS011;36955;47.416;7.716;2022-07-10T14:41:21;0.68;;;0.68;;
50946;SDS011;36955;47.416;7.716;2022-07-10T14:43:48;0.73;;;0.73;;
50946;SDS011;36955;47.416;7.716;2022-07-10T14:46:14;0.50;;;0.50;;
50946;SDS011;36955;47.416;7.716;2022-07-10T14:48:40;2.85;;;2.75;;
50946;SDS011;36955;47.416;7.716;2022-07-10T14:51:06;3.83;;;3.72;;
50946;SDS011;36955;47.416;7.716;2022-07-10T14:53:33;1999.90;;;999.90;;
50946;SDS011;36955;47.416;7.716;2022-07-10T14:55:59;1999.90;;;999.90;;
50946;SDS011;36955;47.416;7.716;2022-07-10T14:58:26;1501.47;;;751.42;;
50946;SDS011;36955;47.416;7.716;2022-07-10T15:00:52;10.38;;;2.67;;
50946;SDS011;36955;47.416;7.716;2022-07-10T15:03:18;3.28;;;1.60;;
50946;SDS011;36955;47.416;7.716;2022-07-10T15:05:44;1999.90;;;999.90;;
50946;SDS011;36955;47.416;7.716;2022-07-10T15:08:10;1999.90;;;999.90;;
50946;SDS011;36955;47.416;7.716;2022-07-10T15:10:36;186.18;;;34.05;;
50946;SDS011;36955;47.416;7.716;2022-07-10T15:13:02;1.55;;;1.20;;
50946;SDS011;36955;47.416;7.716;2022-07-10T15:15:28;1591.70;;;765.80;;
50946;SDS011;36955;47.416;7.716;2022-07-10T15:17:54;1999.90;;;999.90;;
50946;SDS011;36955;47.416;7.716;2022-07-10T15:20:20;1999.90;;;999.90;;
50946;SDS011;36955;47.416;7.716;2022-07-10T15:22:46;1999.90;;;999.90;;
50946;SDS011;36955;47.416;7.716;2022-07-10T15:25:12;1999.90;;;999.90;;
50946;SDS011;36955;47.416;7.716;2022-07-10T15:27:38;1999.90;;;999.90;;
50946;SDS011;36955;47.416;7.716;2022-07-10T15:30:05;1999.90;;;999.90;;
50946;SDS011;36955;47.416;7.716;2022-07-10T15:32:32;1999.90;;;999.90;;
50946;SDS011;36955;47.416;7.716;2022-07-10T15:34:58;1999.90;;;999.90;;